Time;durP1;ratioP1;P1;durP2;ratioP2;P2;SDS_P1;SDS_P2;PMS_P1;PMS_P2;Temp;Humidity;BMP_temperature;BMP_pressure;BME280_temperature;BME280_humidity;BME280_pressure;Samples;Min_cycle;Max_cycle;Signal;HPM_P1;HPM_P2
2024/01/18 00:00:54;;;;;;;1.73;1.63;;;;;;;-15.55;95.63;99270.09;5068902;27;20416;-81
2024/01/18 00:03:22;;;;;;;1.42;1.33;;;;;;;-15.56;95.76;99275.38;5135155;27;20104;-81
2024/01/18 00:05:53;;;;;;;1.58;1.48;;;;;;;-15.68;95.65;99270.78;5135144;27;20074;-81
2024/01/18 00:08:20;;;;;;;1.77;1.67;;;;;;;-15.69;95.73;99279.50;5133867;27;20500;-81
2024/01/18 00:10:47;;;;;;;1.52;1.42;;;;;;;-15.83;95.79;99278.38;5128217;27;20057;-79
2024/01/18 00:13:15;;;;;;;1.70;1.60;;;;;;;-15.86;95.80;99277.69;5116198;27;20043;-81
2024/01/18 00:15:42;;;;;;;1.50;1.40;;;;;;;-15.90;96.19;99279.56;5117064;27;20058;-80
2024/01/18 00:18:10;;;;;;;1.48;1.38;;;;;;;-15.97;96.08;99275.63;5134884;27;20539;-80
2024/01/18 00:20:39;;;;;;;1.77;1.67;;;;;;;-15.98;96.46;99279.94;5134745;27;20078;-80
2024/01/18 00:23:08;;;;;;;1.58;1.48;;;;;;;-15.89;96.47;99283.03;5099935;27;20081;-80
2024/01/18 00:25:35;;;;;;;1.45;1.35;;;;;;;-15.84;96.85;99281.88;5134914;27;20373;-80
2024/01/18 00:28:03;;;;;;;1.70;1.60;;;;;;;-15.85;96.52;99276.78;5115725;27;20075;-81
2024/01/18 00:30:30;;;;;;;1.48;1.38;;;;;;;-15.92;96.56;99281.41;5116970;27;20059;-80
2024/01/18 00:32:57;;;;;;;1.60;1.50;;;;;;;-15.86;96.61;99290.63;5134588;27;20043;-81
2024/01/18 00:35:25;;;;;;;1.55;1.45;;;;;;;-15.90;96.52;99276.97;5134823;27;20141;-81
2024/01/18 00:37:52;;;;;;;1.77;1.67;;;;;;;-15.91;96.65;99277.91;5116469;27;20055;-81
2024/01/18 00:40:20;;;;;;;1.55;1.45;;;;;;;-15.96;96.50;99272.94;5134205;27;20100;-82
2024/01/18 00:42:48;;;;;;;1.50;1.40;;;;;;;-16.01;96.65;99274.06;5132915;27;20522;-81
2024/01/18 00:45:15;;;;;;;1.40;1.30;;;;;;;-16.03;96.71;99275.88;5133016;27;20469;-80
2024/01/18 00:47:44;;;;;;;1.25;1.20;;;;;;;-16.04;96.59;99279.41;5132971;27;20058;-80
2024/01/18 00:50:12;;;;;;;1.73;1.63;;;;;;;-16.17;96.58;99284.28;5134190;27;20130;-82
2024/01/18 00:52:40;;;;;;;1.58;1.48;;;;;;;-16.20;96.84;99284.41;5132845;27;20047;-81
2024/01/18 00:55:09;;;;;;;1.70;1.60;;;;;;;-16.20;97.13;99282.69;5098652;27;20047;-82
2024/01/18 00:57:38;;;;;;;1.60;1.50;;;;;;;-16.21;97.14;99291.31;5115952;27;20043;-80
2024/01/18 01:00:09;;;;;;;1.55;1.45;;;;;;;-16.30;97.12;99289.19;5134092;27;20043;-81
2024/01/18 01:02:36;;;;;;;1.45;1.35;;;;;;;-16.27;97.22;99296.78;5133917;27;20050;-81
2024/01/18 01:05:04;;;;;;;1.50;1.40;;;;;;;-16.38;97.04;99293.81;5134133;27;20058;-81
2024/01/18 01:07:31;;;;;;;1.60;1.50;;;;;;;-16.42;97.35;99312.97;5122959;27;20047;-80
2024/01/18 01:09:58;;;;;;;1.50;1.40;;;;;;;-16.40;97.66;99311.16;5134194;27;20039;-80
2024/01/18 01:12:26;;;;;;;1.40;1.30;;;;;;;-16.46;97.32;99317.41;5133692;27;20043;-80
2024/01/18 01:14:53;;;;;;;1.50;1.40;;;;;;;-16.51;97.37;99318.53;5133704;27;20066;-79
2024/01/18 01:17:20;;;;;;;1.42;1.33;;;;;;;-16.64;97.39;99319.06;5115143;27;20059;-80
2024/01/18 01:19:48;;;;;;;1.77;1.67;;;;;;;-16.67;97.71;99323.53;5133623;27;20047;-81
2024/01/18 01:22:16;;;;;;;1.40;1.30;;;;;;;-16.70;97.94;99336.59;5133541;27;20062;-81
2024/01/18 01:24:43;;;;;;;1.67;1.58;;;;;;;-16.71;98.01;99325.41;5133713;27;20043;-80
2024/01/18 01:27:10;;;;;;;1.77;1.67;;;;;;;-16.67;98.01;99326.94;5133814;27;20598;-81
2024/01/18 01:29:37;;;;;;;1.80;1.70;;;;;;;-16.73;97.60;99321.19;5134308;27;20102;-81
2024/01/18 01:32:05;;;;;;;1.27;1.20;;;;;;;-16.88;97.72;99305.50;5133943;27;20435;-81
2024/01/18 01:34:32;;;;;;;1.55;1.45;;;;;;;-16.81;97.96;99318.97;5115960;27;20456;-81
2024/01/18 01:36:59;;;;;;;1.50;1.40;;;;;;;-16.74;98.18;99320.38;5134201;27;20093;-82
2024/01/18 01:39:28;;;;;;;1.50;1.40;;;;;;;-16.69;98.12;99317.59;5132351;27;20051;-81
2024/01/18 01:41:57;;;;;;;1.75;1.65;;;;;;;-16.73;98.14;99303.97;5134069;27;20043;-80
2024/01/18 01:44:26;;;;;;;1.55;1.45;;;;;;;-16.81;97.87;99308.66;5115543;28;20509;-81
2024/01/18 01:46:55;;;;;;;1.80;1.70;;;;;;;-16.84;97.95;99304.44;5132883;28;20053;-81
2024/01/18 01:49:22;;;;;;;1.60;1.50;;;;;;;-16.77;98.17;99314.53;5132342;28;20049;-81
2024/01/18 01:51:50;;;;;;;1.50;1.40;;;;;;;-16.83;97.84;99310.47;5132443;28;20063;-81
2024/01/18 01:54:21;;;;;;;1.55;1.45;;;;;;;-16.87;97.89;99309.75;5132109;28;20050;-80
2024/01/18 01:56:50;;;;;;;1.83;1.73;;;;;;;-16.96;97.82;99293.81;5132478;28;20127;-80
2024/01/18 01:59:18;;;;;;;1.80;1.70;;;;;;;-16.95;98.25;99306.66;5098952;28;20050;-80
2024/01/18 02:01:46;;;;;;;1.90;1.80;;;;;;;-16.95;98.32;99298.91;5115479;28;20047;-80
2024/01/18 02:04:13;;;;;;;1.60;1.50;;;;;;;-16.94;98.25;99304.91;5119010;28;20047;-81
2024/01/18 02:06:44;;;;;;;1.40;1.30;;;;;;;-16.87;98.42;99296.84;5114870;28;20051;-80
2024/01/18 02:09:11;;;;;;;1.58;1.48;;;;;;;-16.88;98.40;99294.34;5115360;28;20050;-80
2024/01/18 02:11:40;;;;;;;1.75;1.65;;;;;;;-16.93;98.20;99297.13;5116061;28;20047;-80
2024/01/18 02:14:10;;;;;;;1.63;1.52;;;;;;;-16.96;98.20;99301.56;5133455;28;20047;-80
2024/01/18 02:16:37;;;;;;;1.63;1.52;;;;;;;-17.01;98.44;99296.59;5115756;28;20043;-80
2024/01/18 02:19:26;;;;;;;1.35;1.27;;;;;;;-17.05;98.37;99297.63;5103931;28;20051;-80
2024/01/18 02:21:53;;;;;;;1.70;1.60;;;;;;;-17.05;98.39;99301.03;5133309;28;20055;-80
2024/01/18 02:24:30;;;;;;;1.50;1.40;;;;;;;-17.09;98.67;99291.75;5115387;28;20096;-81
2024/01/18 02:26:59;;;;;;;1.75;1.65;;;;;;;-17.09;98.47;99293.47;5116137;28;20408;-81
2024/01/18 02:29:26;;;;;;;1.77;1.67;;;;;;;-17.13;98.42;99290.22;5133166;28;20075;-80
2024/01/18 02:31:54;;;;;;;1.45;1.35;;;;;;;-17.12;98.34;99294.44;5115055;28;20048;-80
2024/01/18 02:34:22;;;;;;;1.42;1.33;;;;;;;-17.15;98.60;99298.91;5133062;28;20525;-81
2024/01/18 02:36:49;;;;;;;1.60;1.50;;;;;;;-17.15;98.28;99296.34;5133548;27;20054;-82
2024/01/18 02:39:18;;;;;;;1.70;1.60;;;;;;;-17.17;98.16;99290.38;5114638;28;20072;-80
2024/01/18 02:41:45;;;;;;;1.40;1.30;;;;;;;-17.17;98.27;99306.72;5132727;27;20365;-81
2024/01/18 02:44:15;;;;;;;1.55;1.45;;;;;;;-17.19;98.29;99308.50;5132847;28;20051;-82
2024/01/18 02:46:43;;;;;;;1.60;1.50;;;;;;;-17.22;97.96;99312.97;5131855;28;20047;-82
2024/01/18 02:49:11;;;;;;;1.80;1.70;;;;;;;-17.21;98.21;99312.91;5132272;27;20043;-80
2024/01/18 02:51:41;;;;;;;1.77;1.67;;;;;;;-17.19;98.23;99305.94;5102085;27;20051;-80
2024/01/18 02:54:09;;;;;;;1.60;1.50;;;;;;;-17.17;98.04;99304.13;5139537;27;20055;-81
2024/01/18 02:56:37;;;;;;;1.50;1.40;;;;;;;-17.20;97.92;99303.44;5142376;27;20043;-80
2024/01/18 02:59:06;;;;;;;1.60;1.50;;;;;;;-17.26;98.09;99292.47;5133747;27;20464;-79
2024/01/18 03:01:33;;;;;;;1.95;1.85;;;;;;;-17.22;97.96;99300.91;5118728;27;20059;-81
2024/01/18 03:04:03;;;;;;;1.75;1.65;;;;;;;-17.23;97.75;99288.91;5136442;27;20512;-81
2024/01/18 03:06:31;;;;;;;1.55;1.45;;;;;;;-17.26;97.79;99286.47;5100920;27;20047;-81
2024/01/18 03:09:00;;;;;;;1.60;1.50;;;;;;;-17.35;97.88;99271.34;5118027;27;20043;-80
2024/01/18 03:11:28;;;;;;;1.70;1.60;;;;;;;-17.31;97.63;99276.31;5136357;27;20073;-80
2024/01/18 03:13:55;;;;;;;1.40;1.30;;;;;;;-17.35;97.74;99274.75;5117987;27;20071;-81
2024/01/18 03:16:23;;;;;;;1.58;1.48;;;;;;;-17.32;97.79;99281.53;5136471;27;20047;-81
2024/01/18 03:18:50;;;;;;;1.60;1.50;;;;;;;-17.28;97.87;99302.00;5136211;27;20039;-81
2024/01/18 03:21:17;;;;;;;1.55;1.45;;;;;;;-17.26;97.75;99300.19;5117856;27;20400;-81
2024/01/18 03:23:44;;;;;;;1.60;1.50;;;;;;;-17.21;97.89;99312.91;5135781;27;20103;-81
2024/01/18 03:26:12;;;;;;;1.75;1.65;;;;;;;-17.13;97.59;99299.69;5135793;27;20051;-80
2024/01/18 03:28:51;;;;;;;1.42;1.33;;;;;;;-17.07;97.53;99294.25;5102109;27;20051;-82
2024/01/18 03:31:19;;;;;;;1.73;1.63;;;;;;;-17.12;97.46;99278.97;5117031;27;20053;-82
2024/01/18 03:33:46;;;;;;;1.70;1.60;;;;;;;-17.10;97.56;99286.66;5135980;27;20047;-81
2024/01/18 03:36:13;;;;;;;1.95;1.85;;;;;;;-17.03;97.83;99285.50;5117102;27;20047;-80
2024/01/18 03:38:41;;;;;;;1.60;1.50;;;;;;;-17.00;97.57;99300.84;5135628;27;20051;-80
2024/01/18 03:41:08;;;;;;;1.63;1.52;;;;;;;-17.02;97.26;99299.25;5117325;27;20418;-80
2024/01/18 03:43:36;;;;;;;1.50;1.40;;;;;;;-17.05;97.48;99311.38;5135423;27;20062;-80
2024/01/18 03:46:03;;;;;;;1.60;1.50;;;;;;;-16.96;97.72;99302.41;5135700;27;20053;-79
2024/01/18 03:48:31;;;;;;;1.52;1.42;;;;;;;-16.97;97.36;99276.66;5136814;27;20055;-82
2024/01/18 03:50:59;;;;;;;1.80;1.70;;;;;;;-16.90;97.42;99273.75;5135323;27;20046;-80
2024/01/18 03:53:27;;;;;;;1.92;1.83;;;;;;;-16.93;97.15;99280.78;5135466;27;20047;-81
2024/01/18 03:55:54;;;;;;;1.50;1.40;;;;;;;-16.94;97.59;99289.44;5090586;27;20067;-81
2024/01/18 03:58:21;;;;;;;1.65;1.55;;;;;;;-16.87;97.42;99296.00;5135130;27;20062;-80
2024/01/18 04:00:49;;;;;;;1.77;1.67;;;;;;;-16.84;97.21;99272.63;5134594;27;20055;-80
2024/01/18 04:03:16;;;;;;;1.85;1.75;;;;;;;-16.83;97.10;99257.09;5134977;27;20133;-77
2024/01/18 04:05:45;;;;;;;1.80;1.70;;;;;;;-16.89;96.84;99257.34;5134802;27;20468;-79
2024/01/18 04:08:16;;;;;;;1.58;1.48;;;;;;;-16.87;96.75;99252.94;5100253;27;20078;-79
2024/01/18 04:10:44;;;;;;;1.30;1.20;;;;;;;-16.86;96.88;99257.22;5117065;27;20050;-81
2024/01/18 04:13:11;;;;;;;1.80;1.70;;;;;;;-16.87;96.73;99236.63;5135053;27;20043;-80
2024/01/18 04:15:39;;;;;;;1.45;1.35;;;;;;;-16.80;96.64;99235.44;5116626;27;20563;-81
2024/01/18 04:18:07;;;;;;;1.67;1.58;;;;;;;-16.86;96.69;99233.13;5134944;27;20108;-81
2024/01/18 04:20:34;;;;;;;1.40;1.30;;;;;;;-16.84;96.72;99247.63;5134462;27;20088;-81
2024/01/18 04:23:02;;;;;;;1.50;1.40;;;;;;;-16.78;96.69;99262.06;5099779;27;20065;-80
2024/01/18 04:25:29;;;;;;;1.48;1.38;;;;;;;-16.80;96.68;99250.94;5082087;27;20051;-81
2024/01/18 04:27:57;;;;;;;1.52;1.42;;;;;;;-16.73;96.49;99262.66;5115758;27;20118;-81
2024/01/18 04:30:25;;;;;;;1.70;1.60;;;;;;;-16.73;96.79;99259.22;5134380;27;20518;-81
2024/01/18 04:32:52;;;;;;;1.48;1.38;;;;;;;-16.71;96.56;99255.66;5121896;27;20105;-82
2024/01/18 04:35:19;;;;;;;1.42;1.33;;;;;;;-16.71;96.43;99250.50;4770787;27;9999724;-81
2024/01/18 04:37:47;;;;;;;1.55;1.45;;;;;;;-16.72;96.39;99253.16;5104804;27;20039;-79
2024/01/18 04:40:17;;;;;;;1.75;1.65;;;;;;;-16.77;96.33;99245.59;5088460;27;20047;-81
2024/01/18 04:42:44;;;;;;;1.70;1.60;;;;;;;-16.80;96.16;99247.53;5106346;27;20122;-81
2024/01/18 04:45:15;;;;;;;1.40;1.30;;;;;;;-16.83;96.33;99244.16;5105347;27;20047;-79
2024/01/18 04:47:43;;;;;;;1.52;1.42;;;;;;;-16.82;96.13;99237.25;5122342;27;20472;-82
2024/01/18 04:50:10;;;;;;;1.45;1.35;;;;;;;-16.85;96.07;99224.50;5121040;27;20042;-81
2024/01/18 04:52:41;;;;;;;1.60;1.50;;;;;;;-16.91;96.12;99211.81;5098928;28;20050;-81
2024/01/18 04:55:12;;;;;;;;;;;;;;;-16.84;96.08;99210.66;5117578;27;20536;-82
2024/01/18 04:57:40;;;;;;;1.80;1.70;;;;;;;-16.85;96.14;99204.66;5118337;27;20443;-80
2024/01/18 05:00:10;;;;;;;1.45;1.35;;;;;;;-16.80;96.40;99191.56;5093972;27;20039;-79
2024/01/18 05:02:39;;;;;;;1.50;1.40;;;;;;;-16.72;96.50;99181.69;5121082;27;20122;-79
2024/01/18 05:05:09;;;;;;;1.85;1.75;;;;;;;-16.68;96.37;99183.22;5068052;28;20045;-80
2024/01/18 05:07:44;;;;;;;1.52;1.42;;;;;;;-16.61;96.47;99171.72;5051867;28;20149;-80
2024/01/18 05:10:11;;;;;;;1.50;1.40;;;;;;;-16.54;96.61;99171.41;5067808;28;20060;-79
2024/01/18 05:12:38;;;;;;;1.52;1.42;;;;;;;-16.54;96.54;99154.16;5051323;28;20040;-80
2024/01/18 05:15:10;;;;;;;1.45;1.35;;;;;;;-16.36;96.76;99170.56;5069601;28;20456;-79
2024/01/18 05:17:39;;;;;;;1.50;1.40;;;;;;;-16.31;96.46;99163.44;5064938;28;20139;-79
2024/01/18 05:20:07;;;;;;;1.70;1.60;;;;;;;-16.29;96.48;99182.28;5080473;28;20052;-79
2024/01/18 05:22:36;;;;;;;1.98;1.88;;;;;;;-16.27;96.32;99202.91;5073309;28;20084;-79
2024/01/18 05:25:06;;;;;;;1.85;1.75;;;;;;;-16.29;96.16;99202.97;5054107;28;20048;-80
2024/01/18 05:27:36;;;;;;;1.60;1.50;;;;;;;-16.24;96.03;99193.25;5069890;28;20059;-80
2024/01/18 05:30:04;;;;;;;1.35;1.25;;;;;;;-16.31;95.93;99176.34;5087975;28;20055;-80
2024/01/18 05:32:32;;;;;;;1.60;1.50;;;;;;;-16.36;95.50;99178.31;5049968;28;20053;-79
2024/01/18 05:35:01;;;;;;;1.63;1.52;;;;;;;-16.38;95.51;99180.13;5049774;28;20485;-79
2024/01/18 05:37:29;;;;;;;1.50;1.40;;;;;;;-16.33;95.67;99175.59;5032991;28;20055;-80
2024/01/18 05:39:56;;;;;;;1.25;1.20;;;;;;;-16.29;95.50;99174.53;5016924;28;20049;-79
2024/01/18 05:42:23;;;;;;;1.55;1.45;;;;;;;-16.31;95.40;99163.44;5075321;28;20058;-78
2024/01/18 05:44:52;;;;;;;1.63;1.52;;;;;;;-16.26;95.25;99166.63;5077310;28;20131;-79
2024/01/18 05:47:27;;;;;;;1.73;1.63;;;;;;;-16.21;95.42;99153.50;5077599;28;20061;-79
2024/01/18 05:49:57;;;;;;;1.70;1.60;;;;;;;-16.21;95.36;99141.41;5029333;28;20055;-78
2024/01/18 05:52:27;;;;;;;1.60;1.50;;;;;;;-16.07;95.58;99145.94;5097597;28;20071;-79
2024/01/18 05:54:59;;;;;;;1.30;1.20;;;;;;;-15.98;95.58;99139.47;5095845;28;20138;-79
2024/01/18 05:57:37;;;;;;;1.50;1.40;;;;;;;-15.91;94.93;99156.38;5061994;28;20063;-79
2024/01/18 06:00:09;;;;;;;1.50;1.40;;;;;;;-15.89;94.94;99144.19;5113710;27;20046;-79
2024/01/18 06:03:04;;;;;;;1.40;1.30;;;;;;;-15.90;94.78;99141.69;5011380;28;20061;-79
2024/01/18 06:05:39;;;;;;;1.40;1.30;;;;;;;-15.85;94.51;99129.34;4974570;28;20054;-78
2024/01/18 06:08:33;;;;;;;1.73;1.63;;;;;;;-15.83;94.39;99122.38;4952509;28;20050;-79
2024/01/18 06:11:10;;;;;;;1.50;1.40;;;;;;;-15.77;94.64;99111.69;4979446;28;20046;-79
2024/01/18 06:13:43;;;;;;;1.70;1.60;;;;;;;-15.70;94.47;99096.72;4934297;29;20283;-79
2024/01/18 06:16:15;;;;;;;1.98;1.88;;;;;;;-15.59;94.40;99079.72;4937156;29;20059;-79
2024/01/18 06:18:46;;;;;;;1.80;1.70;;;;;;;-15.50;94.05;99093.91;4934401;29;20062;-79
2024/01/18 06:21:26;;;;;;;1.73;1.63;;;;;;;-15.40;93.65;99078.75;4881915;29;20052;-79
2024/01/18 06:27:08;;;;;;;1.83;1.73;;;;;;;-15.33;92.88;99062.81;4909610;29;20100;-79
2024/01/18 06:29:52;;;;;;;1.73;1.63;;;;;;;-15.27;92.71;99058.25;4903271;29;20052;-79
2024/01/18 06:32:26;;;;;;;1.73;1.63;;;;;;;-15.21;92.44;99057.94;4857515;29;20597;-80
2024/01/18 06:34:55;;;;;;;1.90;1.80;;;;;;;-15.18;92.07;99065.53;4895052;29;20108;-79
2024/01/18 06:37:47;;;;;;;1.48;1.38;;;;;;;-15.13;92.10;99050.59;4917178;29;20458;-79
2024/01/18 06:40:37;;;;;;;1.60;1.50;;;;;;;-15.06;91.77;99046.75;4933792;29;20059;-79
2024/01/18 06:44:02;;;;;;;1.50;1.40;;;;;;;-14.96;91.35;99034.97;4883375;29;20197;-79
2024/01/18 06:46:31;;;;;;;1.65;1.55;;;;;;;-14.91;91.04;99024.34;4893413;29;20501;-79
2024/01/18 06:49:00;;;;;;;1.60;1.50;;;;;;;-14.85;90.41;99039.56;4923824;29;20066;-78
2024/01/18 06:51:30;;;;;;;1.65;1.55;;;;;;;-14.91;90.10;99027.78;4921100;29;20047;-79
2024/01/18 06:54:00;;;;;;;1.65;1.55;;;;;;;-14.85;89.93;99022.25;4906140;29;20044;-78
2024/01/18 06:56:30;;;;;;;1.70;1.60;;;;;;;-14.79;89.37;99007.31;4939404;29;20508;-78
2024/01/18 06:59:02;;;;;;;2.00;1.90;;;;;;;-14.79;89.06;99007.31;4933763;28;20055;-79
2024/01/18 07:02:01;;;;;;;2.30;2.10;;;;;;;-14.70;89.06;99006.81;4944853;28;20050;-79
2024/01/18 07:04:41;;;;;;;1.75;1.65;;;;;;;-14.68;88.54;99000.63;4984869;28;20549;-79
2024/01/18 07:07:09;;;;;;;2.00;1.90;;;;;;;-14.60;88.03;99004.53;4923808;29;20076;-78
2024/01/18 07:09:48;;;;;;;1.70;1.60;;;;;;;-14.52;87.46;98995.34;4908182;29;20052;-79
2024/01/18 07:12:29;;;;;;;1.73;1.63;;;;;;;-14.50;87.26;98992.69;4914871;29;20176;-79
2024/01/18 07:14:57;;;;;;;1.40;1.30;;;;;;;-14.47;86.99;98990.75;4902228;29;20406;-79
2024/01/18 07:17:47;;;;;;;1.58;1.48;;;;;;;-14.41;86.52;98997.34;4906123;29;20146;-80
2024/01/18 07:20:18;;;;;;;1.75;1.65;;;;;;;-14.42;86.14;98980.94;4950076;28;20096;-79
2024/01/18 07:23:20;;;;;;;1.65;1.55;;;;;;;-14.29;85.81;98982.84;4966278;28;20052;-79
2024/01/18 07:25:54;;;;;;;1.60;1.50;;;;;;;-14.35;85.67;98981.44;4984004;28;20041;-79
2024/01/18 07:28:24;;;;;;;1.80;1.70;;;;;;;-14.19;85.43;98989.16;4957535;28;20062;-79
2024/01/18 07:31:03;;;;;;;1.60;1.50;;;;;;;-14.19;84.50;98991.75;4931510;28;20052;-79
2024/01/18 07:33:39;;;;;;;1.70;1.60;;;;;;;-14.21;84.20;98996.19;4962074;28;20047;-79
2024/01/18 07:36:14;;;;;;;1.88;1.77;;;;;;;-14.14;84.10;98994.09;4919077;29;20055;-79
2024/01/18 07:38:41;;;;;;;1.67;1.58;;;;;;;-14.19;83.68;98986.56;4919001;29;20083;-80
2024/01/18 07:41:10;;;;;;;1.75;1.65;;;;;;;-14.03;nan;98999.47;4908150;29;20056;-79
2024/01/18 07:43:54;;;;;;;1.80;1.70;;;;;;;-13.95;82.94;99009.41;4915056;29;20568;-78
2024/01/18 07:46:30;;;;;;;2.33;2.13;;;;;;;-13.98;82.58;99000.03;4915804;29;20166;-80
2024/01/18 07:49:13;;;;;;;2.00;1.90;;;;;;;-13.88;82.97;99005.53;4883660;29;20130;-80
2024/01/18 07:51:43;;;;;;;2.20;2.00;;;;;;;-13.77;82.74;98988.41;4881630;29;20055;-80
2024/01/18 07:54:13;;;;;;;1.65;1.55;;;;;;;-13.70;82.40;98986.25;4923031;28;20047;-80
2024/01/18 07:56:42;;;;;;;1.55;1.45;;;;;;;-13.61;82.22;98974.50;4969221;28;20051;-80
2024/01/18 07:59:09;;;;;;;1.63;1.52;;;;;;;-13.51;81.87;98967.00;4987988;28;20396;-80
2024/01/18 08:01:40;;;;;;;1.80;1.70;;;;;;;-13.45;81.43;98967.44;5011379;28;20466;-79
2024/01/18 08:04:07;;;;;;;1.60;1.50;;;;;;;-13.41;81.02;98971.50;5029045;28;20051;-80
2024/01/18 08:06:42;;;;;;;1.67;1.58;;;;;;;-13.40;81.00;98972.34;5020058;27;20051;-79
2024/01/18 08:09:11;;;;;;;1.92;1.83;;;;;;;-13.30;80.54;98970.84;5079314;27;20124;-78
2024/01/18 08:11:43;;;;;;;1.88;1.77;;;;;;;-13.18;80.25;98962.25;5091806;27;20065;-81
2024/01/18 08:14:14;;;;;;;1.63;1.52;;;;;;;-13.16;80.08;98972.56;5077028;27;20093;-79
2024/01/18 08:16:44;;;;;;;2.05;1.92;;;;;;;-13.17;79.66;98961.31;5091088;27;20047;-79
2024/01/18 08:19:12;;;;;;;1.73;1.63;;;;;;;-13.15;79.32;98959.47;5121220;27;20054;-82
2024/01/18 08:21:43;;;;;;;1.60;1.50;;;;;;;-13.03;79.17;98957.03;5092166;27;20131;-81
2024/01/18 08:24:11;;;;;;;2.00;1.90;;;;;;;-12.99;78.92;98954.13;5108751;27;20517;-81
2024/01/18 08:26:40;;;;;;;1.70;1.60;;;;;;;-12.93;78.58;98947.72;5108999;27;20171;-81
2024/01/18 08:29:08;;;;;;;1.90;1.80;;;;;;;-12.88;79.08;98962.09;5047429;28;20074;-80
2024/01/18 08:31:36;;;;;;;1.80;1.70;;;;;;;-12.78;78.77;98930.31;5094276;28;20043;-80
2024/01/18 08:34:04;;;;;;;1.75;1.65;;;;;;;-12.72;79.04;98922.13;5112338;28;20101;-80
2024/01/18 08:36:32;;;;;;;1.90;1.80;;;;;;;-12.59;78.62;98919.56;5095838;28;20501;-81
2024/01/18 08:39:00;;;;;;;1.92;1.83;;;;;;;-12.58;78.32;98887.41;5112488;28;20048;-80
2024/01/18 08:41:28;;;;;;;1.88;1.77;;;;;;;-12.52;78.17;98906.03;5112366;28;20126;-80
2024/01/18 08:43:55;;;;;;;1.67;1.58;;;;;;;-12.44;77.81;98889.94;5094242;28;20050;-81
2024/01/18 08:46:22;;;;;;;1.90;1.80;;;;;;;-12.36;78.07;98869.44;5112491;28;20686;-80
2024/01/18 08:48:51;;;;;;;1.70;1.60;;;;;;;-12.30;77.46;98889.03;5053200;28;20159;-79
2024/01/18 08:51:18;;;;;;;1.70;1.60;;;;;;;-12.31;77.36;98869.97;5036505;28;20059;-80
2024/01/18 08:53:52;;;;;;;1.60;1.50;;;;;;;-12.32;77.27;98826.69;5052552;28;20041;-81
2024/01/18 08:56:21;;;;;;;2.00;1.90;;;;;;;-12.23;77.17;98869.44;5037020;28;20084;-79
2024/01/18 08:59:00;;;;;;;1.63;1.52;;;;;;;-12.27;76.61;98847.19;5024973;28;20120;-80
2024/01/18 09:01:28;;;;;;;1.92;1.83;;;;;;;-12.19;76.45;98854.47;5073169;28;20059;-79
2024/01/18 09:03:57;;;;;;;1.80;1.70;;;;;;;-12.17;76.07;98827.41;5075147;28;20036;-79
2024/01/18 09:06:25;;;;;;;1.90;1.80;;;;;;;-12.11;76.01;98806.16;5044350;28;20045;-78
2024/01/18 09:08:53;;;;;;;1.90;1.80;;;;;;;-12.03;75.73;98785.63;5080852;28;20087;-80
2024/01/18 09:11:22;;;;;;;1.80;1.70;;;;;;;-11.97;75.49;98783.53;5085384;28;20053;-79
2024/01/18 09:13:49;;;;;;;1.63;1.52;;;;;;;-11.90;75.76;98750.94;5080497;28;20063;-80
2024/01/18 09:16:19;;;;;;;1.98;1.88;;;;;;;-11.79;75.72;98702.34;5079720;28;20040;-80
2024/01/18 09:18:46;;;;;;;1.80;1.70;;;;;;;-11.88;75.03;98723.88;5071319;28;20222;-80
2024/01/18 09:21:40;;;;;;;1.85;1.75;;;;;;;-11.88;74.54;98682.22;5099525;28;20552;-81
2024/01/18 09:24:08;;;;;;;1.73;1.63;;;;;;;-11.89;74.39;98731.81;5069204;28;20056;-80
2024/01/18 09:26:35;;;;;;;1.92;1.83;;;;;;;-11.85;74.38;98717.56;5058707;28;20052;-80
2024/01/18 09:29:03;;;;;;;1.70;1.60;;;;;;;-11.83;74.47;98713.09;5110477;28;20051;-79
2024/01/18 09:31:30;;;;;;;1.55;1.45;;;;;;;-11.83;74.54;98687.88;5111995;28;20412;-80
2024/01/18 09:34:09;;;;;;;1.80;1.70;;;;;;;-11.79;74.93;98697.16;5110553;27;20138;-80
2024/01/18 09:36:37;;;;;;;1.98;1.88;;;;;;;-11.76;74.54;98690.06;5132157;27;20488;-80
2024/01/18 09:39:15;;;;;;;1.70;1.60;;;;;;;-11.86;74.13;98685.53;5109117;27;20153;-80
2024/01/18 09:41:55;;;;;;;1.80;1.70;;;;;;;-11.86;74.36;98654.28;5127399;27;20563;-80
2024/01/18 09:44:30;;;;;;;1.67;1.58;;;;;;;-11.72;74.15;98649.84;5085362;28;20043;-80
2024/01/18 09:47:01;;;;;;;;;;;;;;;-11.65;73.88;98645.84;5106161;28;20051;-80
2024/01/18 09:49:31;;;;;;;1.73;1.63;;;;;;;-11.64;73.67;98647.53;5083142;28;19924;-81
2024/01/18 09:51:59;;;;;;;1.70;1.60;;;;;;;-11.65;73.23;98646.66;5111647;28;20053;-80
2024/01/18 09:54:26;;;;;;;1.80;1.70;;;;;;;-11.71;72.81;98612.47;5101076;28;20505;-79
2024/01/18 09:56:54;;;;;;;1.73;1.63;;;;;;;-11.74;72.64;98600.50;5129428;27;20051;-80
2024/01/18 09:59:22;;;;;;;1.83;1.73;;;;;;;-11.67;72.59;98606.91;5100301;27;20058;-80
2024/01/18 10:01:53;;;;;;;1.70;1.60;;;;;;;-11.66;72.78;98603.34;5118178;27;20063;-80
2024/01/18 10:04:21;;;;;;;2.00;1.90;;;;;;;-11.54;72.42;98586.00;5118323;27;20495;-79
2024/01/18 10:06:49;;;;;;;1.60;1.50;;;;;;;-11.51;71.99;98567.53;5141356;27;20134;-81
2024/01/18 10:09:21;;;;;;;1.80;1.70;;;;;;;-11.40;71.69;98566.72;5038273;28;20045;-80
2024/01/18 10:11:52;;;;;;;1.70;1.60;;;;;;;-11.29;71.51;98545.03;5022032;28;20045;-81
2024/01/18 10:14:46;;;;;;;1.80;1.70;;;;;;;-11.26;70.40;98521.38;4993834;28;20053;-80
2024/01/18 10:17:27;;;;;;;1.80;1.70;;;;;;;-11.35;70.09;98539.34;5007168;28;20422;-82
2024/01/18 10:20:13;;;;;;;1.83;1.73;;;;;;;-11.27;70.06;98530.13;4997577;28;20087;-81
2024/01/18 10:22:46;;;;;;;1.88;1.77;;;;;;;-11.21;69.87;98509.66;5029884;28;20057;-81
2024/01/18 10:25:14;;;;;;;1.48;1.38;;;;;;;-11.23;69.33;98510.72;5041610;28;20070;-81
2024/01/18 10:27:46;;;;;;;1.55;1.45;;;;;;;-11.26;69.22;98517.00;5032934;28;20037;-80
2024/01/18 10:30:17;;;;;;;1.50;1.40;;;;;;;-11.18;69.46;98508.59;5032751;28;20102;-80
2024/01/18 10:32:51;;;;;;;2.00;1.90;;;;;;;-11.26;68.52;98514.38;5033010;28;20411;-80
2024/01/18 10:35:24;;;;;;;1.70;1.60;;;;;;;-11.26;68.57;98495.34;5017630;28;20184;-81
2024/01/18 10:38:10;;;;;;;1.70;1.60;;;;;;;-11.24;68.51;98483.00;5028232;28;20053;-81
2024/01/18 10:40:59;;;;;;;1.83;1.73;;;;;;;-11.18;68.75;98465.09;5030416;28;20052;-82
2024/01/18 10:43:36;;;;;;;1.77;1.67;;;;;;;-11.17;68.27;98499.81;5002967;28;20048;-80
2024/01/18 10:46:14;;;;;;;1.50;1.40;;;;;;;-11.27;67.90;98473.63;5042847;28;20053;-80
2024/01/18 10:48:49;;;;;;;1.58;1.48;;;;;;;-11.26;68.52;98456.25;5036025;28;20458;-81
2024/01/18 10:51:20;;;;;;;1.52;1.42;;;;;;;-11.31;68.04;98464.44;5024997;28;20110;-81
2024/01/18 10:53:48;;;;;;;1.95;1.85;;;;;;;-11.24;67.48;98415.25;5018799;28;20123;-80
2024/01/18 10:56:18;;;;;;;1.63;1.52;;;;;;;-11.13;67.16;98446.50;5055745;28;20404;-80
2024/01/18 10:58:48;;;;;;;1.70;1.60;;;;;;;-11.01;66.95;98437.72;5025668;28;20051;-81
2024/01/18 11:01:27;;;;;;;1.67;1.58;;;;;;;-10.98;66.67;98421.84;5007651;28;20036;-81
2024/01/18 11:04:19;;;;;;;1.55;1.45;;;;;;;-10.91;66.55;98428.22;4933587;28;20637;-80
2024/01/18 11:07:06;;;;;;;1.50;1.40;;;;;;;-10.93;66.09;98432.72;4848856;29;20059;-81
2024/01/18 11:09:44;;;;;;;1.58;1.48;;;;;;;-10.97;66.03;98413.06;4864687;29;20060;-82
2024/01/18 11:12:14;;;;;;;1.70;1.60;;;;;;;-10.99;66.05;98401.91;4836226;29;20127;-82
2024/01/18 11:14:45;;;;;;;1.63;1.52;;;;;;;-10.97;65.56;98397.41;4881208;29;20064;-82
2024/01/18 11:17:25;;;;;;;1.60;1.50;;;;;;;-11.00;65.58;98371.59;4894936;29;20116;-82
2024/01/18 11:20:00;;;;;;;1.60;1.50;;;;;;;-11.00;66.01;98387.25;4850522;29;20056;-81
2024/01/18 11:22:48;;;;;;;1.60;1.50;;;;;;;-11.00;65.47;98358.56;4860097;29;20476;-81
2024/01/18 11:25:33;;;;;;;1.40;1.30;;;;;;;-11.03;65.26;98340.59;4838960;29;20582;-81
2024/01/18 11:28:02;;;;;;;1.50;1.40;;;;;;;-11.09;65.13;98332.44;4825036;29;20148;-82
2024/01/18 11:30:47;;;;;;;1.50;1.40;;;;;;;-11.22;65.59;98319.56;4831063;29;20052;-82
2024/01/18 11:33:26;;;;;;;1.55;1.45;;;;;;;-11.30;66.51;98282.91;4907399;29;20111;-80
2024/01/18 11:36:15;;;;;;;1.17;1.17;;;;;;;-11.41;68.08;98249.91;4939970;28;20100;-80
2024/01/18 11:38:49;;;;;;;1.60;1.50;;;;;;;-11.53;69.86;98267.34;4982393;28;20054;-80
2024/01/18 11:41:28;;;;;;;1.55;1.45;;;;;;;-11.60;71.61;98247.94;4981088;28;20077;-81
2024/01/18 11:44:10;;;;;;;1.63;1.52;;;;;;;-11.65;73.33;98218.84;4970137;28;20112;-80
2024/01/18 11:46:55;;;;;;;1.60;1.50;;;;;;;-11.75;74.79;98230.97;4975627;28;20177;-80
2024/01/18 11:49:24;;;;;;;1.70;1.60;;;;;;;-11.78;76.13;98193.00;5005069;28;20135;-81